Time;durP1;ratioP1;P1;durP2;ratioP2;P2;SDS_P1;SDS_P2;PMS_P1;PMS_P2;Temp;Humidity;BMP_temperature;BMP_pressure;BME280_temperature;BME280_humidity;BME280_pressure;Samples;Min_cycle;Max_cycle;Signal;HPM_P1;HPM_P2
2023/01/06 00:00:14;;;;;;;2.00;1.80;;;;;;;18.67;52.55;97968.16;4998714;28;20179;-92
2023/01/06 00:02:40;;;;;;;2.20;2.00;;;;;;;19.46;52.58;98097.63;4985062;28;20254;-92
2023/01/06 00:05:07;;;;;;;2.03;1.83;;;;;;;19.37;52.49;98089.56;5017550;28;20206;-91
2023/01/06 00:07:34;;;;;;;1.73;1.63;;;;;;;19.44;52.43;98092.44;4984538;28;20255;-92
2023/01/06 00:10:01;;;;;;;1.97;1.67;;;;;;;19.57;52.51;98104.09;4985542;28;20223;-93
2023/01/06 00:12:27;;;;;;;2.03;1.73;;;;;;;18.09;52.24;97841.50;5001241;28;20222;-92
2023/01/06 00:14:54;;;;;;;2.17;1.87;;;;;;;19.39;52.84;98067.56;5001129;28;20226;-93
2023/01/06 00:17:21;;;;;;;2.03;1.83;;;;;;;18.45;52.48;97903.44;5001664;28;20183;-92
2023/01/06 00:19:47;;;;;;;2.63;1.73;;;;;;;18.25;52.17;97864.31;5000753;28;20175;-92
2023/01/06 00:22:14;;;;;;;2.53;2.00;;;;;;;18.54;52.28;97927.66;4984043;28;20215;-91
2023/01/06 00:24:41;;;;;;;2.30;1.77;;;;;;;18.75;52.41;97946.50;4975373;28;20183;-91
2023/01/06 00:27:07;;;;;;;2.47;2.00;;;;;;;19.09;52.83;98008.38;5017627;28;20179;-93
2023/01/06 00:29:34;;;;;;;2.70;1.87;;;;;;;18.96;52.31;97979.72;5000626;28;20218;-91
2023/01/06 00:32:01;;;;;;;1.80;1.70;;;;;;;19.33;52.54;98047.75;5017287;28;20203;-93
2023/01/06 00:34:28;;;;;;;2.00;1.80;;;;;;;18.93;52.46;97983.00;5004885;28;20250;-92
2023/01/06 00:36:55;;;;;;;2.20;1.70;;;;;;;19.26;52.39;98020.22;4984709;28;20299;-92
2023/01/06 00:39:21;;;;;;;1.70;1.60;;;;;;;19.56;52.33;98082.81;5017088;28;20203;-92
2023/01/06 00:42:03;;;;;;;2.17;1.97;;;;;;;19.41;52.21;98066.81;5017050;28;20199;-92
2023/01/06 00:44:30;;;;;;;1.80;1.70;;;;;;;18.68;52.34;97915.56;4986594;28;20207;-92
2023/01/06 00:46:57;;;;;;;2.10;1.70;;;;;;;19.15;52.26;98010.31;5017186;28;20202;-93
2023/01/06 00:49:24;;;;;;;1.97;1.80;;;;;;;18.50;52.32;97887.56;4967091;28;20215;-91
2023/01/06 00:51:50;;;;;;;2.20;1.70;;;;;;;18.27;52.20;97848.28;5000680;28;20202;-93
2023/01/06 00:54:17;;;;;;;1.77;1.67;;;;;;;19.27;52.08;98026.22;5000222;28;20225;-92
2023/01/06 00:56:45;;;;;;;1.80;1.70;;;;;;;19.00;52.23;97981.56;5001880;28;20183;-92
2023/01/06 00:59:13;;;;;;;2.63;2.17;;;;;;;19.29;52.39;98033.13;5000750;28;20183;-92
2023/01/06 01:01:40;;;;;;;1.87;1.73;;;;;;;19.18;52.44;98020.63;5000455;28;20387;-92
2023/01/06 01:04:07;;;;;;;1.93;1.80;;;;;;;19.35;52.43;98046.16;5000491;28;20187;-91
2023/01/06 01:06:35;;;;;;;1.93;1.63;;;;;;;19.37;52.54;98051.31;5016923;28;20242;-92
2023/01/06 01:09:01;;;;;;;1.90;1.70;;;;;;;19.34;52.67;98046.09;5003683;28;20211;-92
2023/01/06 01:14:14;;;;;;;2.23;2.03;;;;;;;19.25;52.64;98036.31;5002996;28;20217;-91
2023/01/06 01:16:41;;;;;;;2.40;2.03;;;;;;;18.40;52.62;97907.44;4985489;28;20183;-92
2023/01/06 01:19:08;;;;;;;2.50;1.70;;;;;;;18.73;52.74;97948.06;5002459;28;20179;-92
2023/01/06 01:21:35;;;;;;;1.90;1.70;;;;;;;18.49;52.87;97902.78;5003669;28;20191;-91
2023/01/06 01:24:01;;;;;;;1.87;1.77;;;;;;;19.25;53.17;98040.53;5020036;28;20209;-92
2023/01/06 01:26:28;;;;;;;2.00;1.80;;;;;;;19.22;52.99;98045.47;5004009;28;20266;-92
2023/01/06 01:28:54;;;;;;;2.67;2.03;;;;;;;19.02;52.54;97993.59;4988000;28;20191;-93
2023/01/06 01:31:21;;;;;;;2.20;1.90;;;;;;;19.37;52.61;98069.16;5019801;28;20230;-92
2023/01/06 01:33:48;;;;;;;1.60;1.50;;;;;;;19.09;52.84;98005.81;4971961;28;20226;-93
2023/01/06 01:36:16;;;;;;;2.10;1.77;;;;;;;19.07;52.86;98001.47;5003482;28;20214;-91
2023/01/06 01:38:42;;;;;;;3.20;1.83;;;;;;;18.39;52.81;97891.31;4988037;28;20214;-91
2023/01/06 01:41:12;;;;;;;1.73;1.60;;;;;;;19.44;52.89;98071.19;5016727;28;20194;-92
2023/01/06 01:43:48;;;;;;;2.27;1.80;;;;;;;19.53;52.85;98077.59;4996743;28;20199;-91
2023/01/06 01:46:39;;;;;;;2.10;1.90;;;;;;;18.82;52.82;97952.72;5017148;28;20214;-92
2023/01/06 01:49:23;;;;;;;2.30;2.00;;;;;;;19.22;52.83;98037.84;4991467;28;20214;-92
2023/01/06 01:51:54;;;;;;;2.43;1.90;;;;;;;18.01;52.63;97809.72;5013028;28;20278;-91
2023/01/06 01:54:26;;;;;;;3.73;1.97;;;;;;;19.54;52.97;98078.47;4996462;28;20209;-91
2023/01/06 01:56:59;;;;;;;2.30;1.80;;;;;;;19.08;52.91;97998.09;5008473;28;20213;-92
2023/01/06 01:59:28;;;;;;;1.93;1.60;;;;;;;19.14;52.82;98024.75;4987406;28;20183;-92
2023/01/06 02:01:54;;;;;;;2.80;2.00;;;;;;;19.12;52.81;97999.97;4992416;28;20205;-92
2023/01/06 02:04:22;;;;;;;2.63;1.87;;;;;;;19.00;52.83;97979.91;5003337;28;20226;-91
2023/01/06 02:06:49;;;;;;;1.70;1.60;;;;;;;19.29;52.85;98022.94;4987570;28;20207;-93
2023/01/06 02:09:45;;;;;;;1.83;1.63;;;;;;;19.54;52.69;98056.38;5008045;28;20191;-91
2023/01/06 02:12:11;;;;;;;2.00;1.73;;;;;;;18.86;52.87;97939.34;5018135;28;20227;-92
2023/01/06 02:14:38;;;;;;;1.93;1.73;;;;;;;19.31;52.58;98012.81;5002978;28;20184;-92
2023/01/06 02:17:23;;;;;;;2.10;1.97;;;;;;;19.54;52.74;98052.97;5020263;28;20191;-93
2023/01/06 02:19:49;;;;;;;2.67;2.07;;;;;;;19.53;52.81;98044.44;5019483;28;20179;-90
2023/01/06 02:22:28;;;;;;;2.10;1.97;;;;;;;19.53;52.71;98044.44;5002963;28;20219;-91
2023/01/06 02:25:00;;;;;;;1.90;1.70;;;;;;;19.53;52.66;98038.47;5019741;28;20199;-92
2023/01/06 02:27:40;;;;;;;1.63;1.53;;;;;;;19.31;52.75;98002.63;5003109;28;20222;-92
2023/01/06 02:30:15;;;;;;;1.80;1.70;;;;;;;19.53;52.81;98041.00;4987386;28;20195;-92
2023/01/06 02:33:07;;;;;;;1.70;1.60;;;;;;;19.53;52.85;98028.25;4979689;28;20218;-93
2023/01/06 02:35:55;;;;;;;2.20;2.00;;;;;;;19.52;52.80;98029.06;5019410;28;20187;-91
2023/01/06 02:38:35;;;;;;;2.10;1.70;;;;;;;18.91;52.46;97933.66;5002066;28;20210;-92
2023/01/06 02:41:22;;;;;;;1.83;1.73;;;;;;;19.51;52.85;98023.09;5002163;28;20183;-92
2023/01/06 02:44:08;;;;;;;2.20;2.00;;;;;;;19.53;52.69;98029.16;4996927;28;20286;-92
2023/01/06 02:47:09;;;;;;;1.80;1.70;;;;;;;19.53;52.83;98026.59;5019281;28;20270;-92
2023/01/06 02:49:45;;;;;;;2.07;1.87;;;;;;;19.53;52.79;98029.16;4986027;28;20214;-91
2023/01/06 02:52:21;;;;;;;2.00;1.80;;;;;;;18.92;52.71;97924.34;5019251;28;20198;-92
2023/01/06 02:54:57;;;;;;;2.10;1.90;;;;;;;19.46;52.73;98027.13;4986153;28;20202;-92
2023/01/06 02:57:36;;;;;;;1.93;1.70;;;;;;;19.56;52.59;98036.03;4970381;28;20186;-92
2023/01/06 03:00:10;;;;;;;1.60;1.50;;;;;;;18.96;52.66;97921.13;5002388;28;20187;-92
2023/01/06 03:02:38;;;;;;;1.93;1.80;;;;;;;18.99;52.63;97921.25;4986112;28;20304;-92
2023/01/06 03:05:06;;;;;;;2.17;1.70;;;;;;;19.21;52.49;97964.72;4989589;28;20214;-92
2023/01/06 03:07:32;;;;;;;1.60;1.50;;;;;;;18.23;52.26;97784.50;4970138;28;20222;-92
2023/01/06 03:10:00;;;;;;;1.77;1.67;;;;;;;19.36;52.61;97988.41;5001497;28;20230;-93
2023/01/06 03:12:34;;;;;;;2.13;1.87;;;;;;;18.98;52.53;97909.34;4975749;28;20211;-91
2023/01/06 03:15:00;;;;;;;1.93;1.80;;;;;;;18.46;52.50;97818.66;5001789;28;20294;-92
2023/01/06 03:17:27;;;;;;;1.70;1.60;;;;;;;18.61;52.52;97838.06;4986149;28;20187;-92
2023/01/06 03:19:53;;;;;;;2.13;1.80;;;;;;;19.16;52.33;97931.41;5001748;28;20179;-93
2023/01/06 03:22:20;;;;;;;2.00;1.90;;;;;;;18.64;52.40;97834.75;4985513;28;20222;-91
2023/01/06 03:24:47;;;;;;;1.90;1.80;;;;;;;19.31;52.38;97950.00;4970656;28;20209;-93
2023/01/06 03:27:14;;;;;;;1.70;1.60;;;;;;;18.80;52.38;97886.44;4970406;28;20210;-92
2023/01/06 03:29:40;;;;;;;1.70;1.60;;;;;;;18.63;52.65;97831.38;4993191;28;20186;-90
2023/01/06 03:32:07;;;;;;;2.33;1.77;;;;;;;19.67;51.74;98009.34;4981429;28;20262;-92
2023/01/06 03:35:01;;;;;;;2.00;1.80;;;;;;;19.67;52.32;98001.72;5001938;28;20195;-92
2023/01/06 03:37:51;;;;;;;1.70;1.60;;;;;;;19.05;52.46;97922.44;4983800;28;20230;-91
2023/01/06 03:40:27;;;;;;;2.03;1.87;;;;;;;19.67;52.36;97999.16;4998514;28;20568;-91
2023/01/06 03:43:10;;;;;;;4.40;1.47;;;;;;;18.94;52.34;97871.78;5013212;28;20211;-91
2023/01/06 03:46:06;;;;;;;1.70;1.60;;;;;;;19.65;52.46;97996.53;5016559;28;20183;-93
2023/01/06 03:48:45;;;;;;;1.77;1.67;;;;;;;19.65;52.43;97988.00;5017938;28;20241;-93
2023/01/06 03:51:42;;;;;;;2.13;1.70;;;;;;;19.64;52.21;97993.94;5001106;28;20195;-92
2023/01/06 03:54:23;;;;;;;1.70;1.60;;;;;;;19.29;52.36;97949.03;5000871;28;20263;-92
2023/01/06 03:56:53;;;;;;;2.33;1.77;;;;;;;19.47;52.53;97980.44;5011917;28;20248;-91
2023/01/06 03:59:21;;;;;;;1.80;1.70;;;;;;;18.70;52.42;97840.13;4986123;28;20186;-91
2023/01/06 04:01:48;;;;;;;1.73;1.63;;;;;;;19.14;52.28;97920.28;5017431;28;20175;-92
2023/01/06 04:04:16;;;;;;;2.43;1.70;;;;;;;19.34;52.41;97973.06;4984974;28;20242;-92
2023/01/06 04:06:42;;;;;;;1.70;1.60;;;;;;;19.47;52.68;97971.91;5017504;28;20207;-92
2023/01/06 04:09:09;;;;;;;2.07;1.83;;;;;;;18.82;52.62;97868.69;5017640;28;20509;-92
2023/01/06 04:14:21;;;;;;;1.83;1.60;;;;;;;19.22;52.31;97951.22;5003534;28;20206;-93
2023/01/06 04:16:47;;;;;;;1.93;1.73;;;;;;;19.07;52.75;97909.75;5017646;28;20337;-92
2023/01/06 04:19:14;;;;;;;2.03;1.83;;;;;;;18.34;52.75;97780.78;5017954;28;20218;-93
2023/01/06 04:21:40;;;;;;;1.80;1.70;;;;;;;19.38;52.76;97963.84;5004334;28;20254;-92
2023/01/06 04:24:07;;;;;;;2.17;1.67;;;;;;;19.32;52.82;97944.06;4968828;28;20205;-92
2023/01/06 04:26:33;;;;;;;1.63;1.53;;;;;;;18.40;52.71;97791.25;5017477;28;20203;-92
2023/01/06 04:29:01;;;;;;;2.83;2.47;;;;;;;18.45;52.74;97802.53;4984455;28;20207;-93
2023/01/06 04:31:27;;;;;;;1.87;1.67;;;;;;;19.13;53.04;97915.97;5016845;28;20179;-91
2023/01/06 04:33:54;;;;;;;1.63;1.53;;;;;;;18.13;52.66;97739.09;4984739;28;20194;-92
2023/01/06 04:36:21;;;;;;;1.70;1.60;;;;;;;18.11;52.86;97738.13;5017684;28;20217;-92
2023/01/06 04:38:47;;;;;;;1.93;1.80;;;;;;;18.12;53.08;97740.75;5016838;28;20179;-92
2023/01/06 04:41:14;;;;;;;1.70;1.60;;;;;;;19.45;52.67;97971.00;5017041;28;20179;-92
2023/01/06 04:43:40;;;;;;;1.67;1.57;;;;;;;19.10;52.67;97904.81;5016492;28;20253;-92
2023/01/06 04:46:07;;;;;;;1.80;1.70;;;;;;;18.44;52.71;97787.19;4968661;28;20207;-92
2023/01/06 04:48:34;;;;;;;1.80;1.70;;;;;;;19.04;52.77;97885.00;5000427;28;20201;-92
2023/01/06 04:51:07;;;;;;;1.90;1.70;;;;;;;18.24;52.63;97750.63;5017013;28;20198;-92
2023/01/06 04:53:34;;;;;;;1.97;1.77;;;;;;;18.38;52.68;97771.66;4986418;28;20211;-91
2023/01/06 04:56:04;;;;;;;1.90;1.80;;;;;;;17.93;52.65;97688.97;5016859;28;20242;-92
2023/01/06 04:58:31;;;;;;;1.90;1.70;;;;;;;19.53;53.09;97970.50;5006293;28;20214;-91
2023/01/06 05:00:59;;;;;;;1.63;1.53;;;;;;;18.11;52.48;97731.38;4984184;28;20183;-91
2023/01/06 05:03:26;;;;;;;2.00;1.90;;;;;;;17.93;52.85;97688.97;5000360;28;20221;-92
2023/01/06 05:05:53;;;;;;;1.97;1.80;;;;;;;19.02;52.57;97881.53;5000228;28;20191;-92
2023/01/06 05:08:19;;;;;;;2.27;1.80;;;;;;;19.47;52.62;97954.06;4984549;28;20187;-92
2023/01/06 05:10:46;;;;;;;1.70;1.60;;;;;;;18.42;52.65;97766.78;4990682;28;20222;-91
2023/01/06 05:13:12;;;;;;;2.37;1.93;;;;;;;18.95;52.89;97856.56;5002816;28;20206;-92
2023/01/06 05:15:39;;;;;;;2.00;1.80;;;;;;;19.06;52.08;97885.94;4968117;28;20209;-92
2023/01/06 05:18:05;;;;;;;1.93;1.73;;;;;;;18.99;52.30;97860.13;4996418;28;20712;-93
2023/01/06 05:20:32;;;;;;;1.50;1.40;;;;;;;19.24;52.71;97917.34;4995510;28;20183;-92
2023/01/06 05:22:58;;;;;;;2.10;1.90;;;;;;;18.20;52.53;97739.44;5015464;28;20215;-92
2023/01/06 05:25:25;;;;;;;1.97;1.83;;;;;;;19.29;52.74;97932.88;5015082;28;20207;-90
2023/01/06 05:27:52;;;;;;;1.80;1.70;;;;;;;19.31;52.69;97931.25;4993046;28;20211;-92
2023/01/06 05:30:18;;;;;;;2.33;1.90;;;;;;;18.67;52.68;97820.50;4999260;28;20194;-92
2023/01/06 05:32:45;;;;;;;2.13;1.50;;;;;;;18.85;52.65;97863.72;5015695;28;20267;-91
2023/01/06 05:35:11;;;;;;;1.90;1.60;;;;;;;19.29;52.68;97943.06;4983827;28;20210;-92
2023/01/06 05:37:38;;;;;;;1.90;1.73;;;;;;;19.05;52.63;97890.97;4989331;28;20191;-92
2023/01/06 05:40:05;;;;;;;1.53;1.43;;;;;;;18.26;52.68;97756.66;5016101;28;20179;-92
2023/01/06 05:42:32;;;;;;;1.90;1.80;;;;;;;19.35;52.70;97948.44;5016126;28;20214;-92
2023/01/06 05:44:58;;;;;;;1.83;1.73;;;;;;;19.42;52.54;97969.16;4968060;28;20191;-92
2023/01/06 05:47:25;;;;;;;1.70;1.60;;;;;;;18.12;52.66;97748.38;5016293;28;20262;-92
2023/01/06 05:49:51;;;;;;;1.80;1.70;;;;;;;18.66;52.42;97834.03;5015545;28;20406;-92
2023/01/06 05:52:18;;;;;;;1.80;1.70;;;;;;;18.96;52.51;97880.38;5015867;28;20423;-92
2023/01/06 05:54:45;;;;;;;1.63;1.53;;;;;;;18.79;52.26;97860.91;4980085;28;20214;-92
2023/01/06 05:57:12;;;;;;;1.70;1.60;;;;;;;19.57;52.40;97987.69;4999780;28;20176;-92
2023/01/06 05:59:38;;;;;;;2.27;2.07;;;;;;;18.40;52.40;97795.47;4999680;28;20203;-92
2023/01/06 06:02:05;;;;;;;1.90;1.80;;;;;;;18.24;52.21;97750.63;5011148;28;20203;-91
2023/01/06 06:04:32;;;;;;;2.10;1.90;;;;;;;19.13;52.61;97895.59;5015735;28;20179;-92
2023/01/06 06:06:58;;;;;;;1.93;1.83;;;;;;;19.36;52.39;97938.28;4999794;28;20229;-90
2023/01/06 06:09:25;;;;;;;1.93;1.73;;;;;;;18.96;52.44;97867.63;4968822;28;20210;-91
2023/01/06 06:11:53;;;;;;;1.73;1.63;;;;;;;18.50;52.54;97790.03;5013194;28;20259;-92
2023/01/06 06:14:20;;;;;;;1.60;1.50;;;;;;;18.58;52.36;97807.38;5018181;28;20215;-93
2023/01/06 06:16:46;;;;;;;1.73;1.63;;;;;;;19.32;52.41;97913.50;5017377;28;20183;-92
2023/01/06 06:19:13;;;;;;;2.17;1.97;;;;;;;18.56;52.24;97785.19;5001280;28;20214;-93
2023/01/06 06:21:39;;;;;;;1.70;1.60;;;;;;;17.74;52.27;97636.41;4998082;28;20199;-92
2023/01/06 06:24:06;;;;;;;1.70;1.60;;;;;;;18.31;52.24;97728.88;5017496;28;20187;-92
2023/01/06 06:26:33;;;;;;;2.10;1.77;;;;;;;19.08;52.22;97863.97;4984987;28;20233;-92
2023/01/06 06:28:59;;;;;;;1.50;1.40;;;;;;;19.32;52.45;97902.41;4969255;28;20175;-91
2023/01/06 06:31:27;;;;;;;1.87;1.60;;;;;;;19.62;52.15;97952.19;5015519;28;20175;-92
2023/01/06 06:33:55;;;;;;;2.03;1.87;;;;;;;18.82;52.20;97839.00;5016674;28;20207;-92
2023/01/06 06:36:22;;;;;;;2.10;1.90;;;;;;;19.42;52.09;97917.31;5016188;28;20203;-90
2023/01/06 06:38:49;;;;;;;2.00;1.80;;;;;;;19.08;52.26;97860.53;4968472;28;20190;-92
2023/01/06 06:41:15;;;;;;;1.77;1.60;;;;;;;18.79;52.10;97807.44;5016397;28;20207;-92
2023/01/06 06:43:42;;;;;;;2.03;1.80;;;;;;;19.10;52.21;97853.84;5013113;28;20208;-92
2023/01/06 06:46:09;;;;;;;1.87;1.77;;;;;;;18.47;52.17;97760.19;4975305;28;20202;-92
2023/01/06 06:48:36;;;;;;;1.73;1.60;;;;;;;19.18;52.13;97870.31;4984232;28;20215;-91
2023/01/06 06:51:04;;;;;;;1.70;1.60;;;;;;;18.48;52.23;97756.88;5015399;28;20234;-92
2023/01/06 06:53:31;;;;;;;2.00;1.80;;;;;;;18.90;52.22;97829.16;4974108;28;20214;-91
2023/01/06 06:55:58;;;;;;;2.27;2.03;;;;;;;19.14;52.31;97871.88;4974931;28;20184;-92
2023/01/06 06:58:24;;;;;;;1.90;1.80;;;;;;;19.12;52.30;97865.84;5013092;28;20286;-90
2023/01/06 07:00:51;;;;;;;1.90;1.80;;;;;;;19.36;52.29;97912.81;4967644;28;20270;-88
2023/01/06 07:03:18;;;;;;;2.50;1.73;;;;;;;18.73;52.35;97802.97;4957711;28;20313;-91
2023/01/06 07:05:45;;;;;;;2.20;1.90;;;;;;;19.22;52.55;97888.34;4970152;28;20210;-91
2023/01/06 07:08:12;;;;;;;2.20;2.00;;;;;;;18.39;52.52;97753.03;4954674;28;20225;-90
2023/01/06 07:10:38;;;;;;;1.90;1.80;;;;;;;19.46;52.69;97934.50;4962227;28;20225;-91
2023/01/06 07:13:05;;;;;;;1.80;1.70;;;;;;;19.33;52.60;97925.41;4969550;28;20233;-90
2023/01/06 07:15:32;;;;;;;2.10;1.90;;;;;;;18.89;52.69;97840.16;4942665;28;20203;-90
2023/01/06 07:18:03;;;;;;;1.67;1.57;;;;;;;19.34;52.63;97927.19;4990804;28;20211;-91
2023/01/06 07:20:30;;;;;;;2.17;1.90;;;;;;;19.26;52.78;97914.84;4943371;28;20219;-91
2023/01/06 07:22:56;;;;;;;1.90;1.80;;;;;;;18.72;52.76;97829.22;4942373;28;20288;-91
2023/01/06 07:25:23;;;;;;;1.70;1.60;;;;;;;18.88;52.95;97857.13;4958575;28;20241;-91
2023/01/06 07:27:57;;;;;;;1.87;1.77;;;;;;;18.97;52.85;97871.91;4956893;28;20226;-89
2023/01/06 07:30:24;;;;;;;1.97;1.80;;;;;;;18.88;52.80;97874.94;4957911;28;20233;-91
2023/01/06 07:32:51;;;;;;;1.80;1.70;;;;;;;18.95;52.38;97886.28;4958255;28;20287;-89
2023/01/06 07:35:17;;;;;;;1.60;1.50;;;;;;;19.18;52.63;97929.81;4942379;28;20207;-90
2023/01/06 07:37:44;;;;;;;2.00;1.80;;;;;;;19.06;52.63;97923.28;4958468;28;20207;-89
2023/01/06 07:40:11;;;;;;;1.83;1.73;;;;;;;19.31;52.71;97962.72;4943507;28;20211;-91
2023/01/06 07:42:37;;;;;;;2.10;1.97;;;;;;;19.13;52.51;97922.78;4979335;28;20227;-91
2023/01/06 07:45:06;;;;;;;1.83;1.73;;;;;;;18.63;52.73;97836.47;4958343;28;20243;-90
2023/01/06 07:47:33;;;;;;;1.90;1.80;;;;;;;18.93;52.79;97886.22;4959547;28;20263;-91
2023/01/06 07:49:59;;;;;;;5.90;1.80;;;;;;;19.41;52.90;97969.09;4943552;28;20203;-90
2023/01/06 07:52:26;;;;;;;2.00;1.80;;;;;;;19.03;52.73;97912.94;4963170;28;20335;-91
2023/01/06 07:54:52;;;;;;;1.90;1.80;;;;;;;19.11;52.90;97917.59;4955748;28;20242;-90
2023/01/06 07:57:19;;;;;;;1.87;1.77;;;;;;;19.12;52.52;97911.69;4942076;28;20202;-90
2023/01/06 07:59:45;;;;;;;2.07;1.80;;;;;;;19.26;52.60;97941.22;4943153;28;20211;-91
2023/01/06 08:02:12;;;;;;;1.90;1.70;;;;;;;19.06;52.50;97898.69;4979601;28;20214;-91
2023/01/06 08:04:39;;;;;;;1.80;1.70;;;;;;;19.12;52.90;97913.34;4974027;28;20183;-91
2023/01/06 08:07:05;;;;;;;1.87;1.77;;;;;;;19.52;52.40;97991.72;4946960;28;20261;-91
2023/01/06 08:09:32;;;;;;;2.20;1.97;;;;;;;19.20;51.91;97925.66;4971628;28;20230;-90
2023/01/06 08:11:59;;;;;;;3.30;1.90;;;;;;;19.42;51.73;97971.69;4964242;28;20249;-92
2023/01/06 08:14:25;;;;;;;1.70;1.60;;;;;;;19.07;51.73;97925.88;4965948;28;20329;-91
2023/01/06 08:16:52;;;;;;;2.83;1.80;;;;;;;19.33;52.44;97961.09;4961836;28;20214;-90
2023/01/06 08:19:18;;;;;;;1.80;1.70;;;;;;;18.86;51.78;97885.88;4954206;28;20234;-90
2023/01/06 08:21:45;;;;;;;2.10;1.90;;;;;;;19.23;52.09;97941.09;4960693;28;20624;-91
2023/01/06 08:24:12;;;;;;;1.53;1.43;;;;;;;19.33;52.14;97973.00;4943625;28;20210;-90
2023/01/06 08:29:14;;;;;;;1.57;1.47;;;;;;;18.86;52.27;97893.50;5008321;28;20207;-91
2023/01/06 08:31:41;;;;;;;1.90;1.70;;;;;;;19.09;52.57;97933.59;4991301;28;20221;-90
2023/01/06 08:34:07;;;;;;;1.80;1.70;;;;;;;18.55;51.95;97847.06;4961758;28;20281;-90
2023/01/06 08:36:34;;;;;;;1.80;1.70;;;;;;;19.38;52.79;97985.13;4978659;28;20210;-90
2023/01/06 08:39:00;;;;;;;1.90;1.80;;;;;;;18.82;52.22;97892.50;4974111;28;20199;-89
2023/01/06 08:41:27;;;;;;;2.13;1.87;;;;;;;19.15;52.10;97944.06;4971739;28;20219;-90
2023/01/06 08:43:53;;;;;;;2.13;1.53;;;;;;;19.34;52.21;97984.91;4963689;28;20203;-90
2023/01/06 08:46:20;;;;;;;1.70;1.60;;;;;;;18.87;52.34;97896.13;4972352;28;20204;-90
2023/01/06 08:48:47;;;;;;;1.73;1.63;;;;;;;19.05;52.38;97942.81;4969997;28;20227;-93
2023/01/06 08:51:19;;;;;;;2.07;1.87;;;;;;;18.67;52.26;97878.19;4970037;28;20290;-93
2023/01/06 08:53:46;;;;;;;1.60;1.50;;;;;;;19.12;52.27;97949.03;4958091;28;20223;-89
2023/01/06 08:56:16;;;;;;;1.70;1.60;;;;;;;19.31;52.37;97978.03;4959318;28;20211;-92
2023/01/06 08:58:42;;;;;;;1.73;1.63;;;;;;;17.62;52.47;97699.38;4943595;28;20729;-93
2023/01/06 09:01:20;;;;;;;1.73;1.63;;;;;;;17.78;52.30;97719.66;4959147;28;20208;-92
2023/01/06 09:03:47;;;;;;;2.20;2.00;;;;;;;17.51;51.88;97672.63;4972576;28;20293;-90
2023/01/06 09:06:14;;;;;;;1.90;1.80;;;;;;;19.35;52.35;97990.09;4972107;28;20215;-92
2023/01/06 09:08:40;;;;;;;1.80;1.70;;;;;;;18.81;52.38;97897.50;4958273;28;20231;-89
2023/01/06 09:11:08;;;;;;;2.10;2.00;;;;;;;18.70;52.23;97871.56;4962483;28;20213;-90
2023/01/06 09:13:34;;;;;;;1.80;1.70;;;;;;;19.11;52.22;97958.38;4973874;28;20211;-90
2023/01/06 09:16:07;;;;;;;1.80;1.70;;;;;;;18.97;52.05;97939.03;4958036;28;20206;-88
2023/01/06 09:18:34;;;;;;;1.73;1.63;;;;;;;19.02;52.23;97945.22;4952180;28;20226;-89
2023/01/06 09:21:00;;;;;;;1.90;1.80;;;;;;;19.07;52.03;97941.19;4956594;28;20303;-89
2023/01/06 09:23:27;;;;;;;1.63;1.53;;;;;;;19.13;52.45;97954.19;4969291;28;20208;-89
2023/01/06 09:25:54;;;;;;;2.00;1.67;;;;;;;19.10;52.33;97943.00;4956044;28;20218;-89
2023/01/06 09:28:21;;;;;;;2.30;2.10;;;;;;;18.88;52.27;97915.69;4960581;28;20231;-89
2023/01/06 09:30:48;;;;;;;2.03;1.83;;;;;;;18.93;52.46;97921.88;4975434;28;20290;-89
2023/01/06 09:33:15;;;;;;;1.67;1.57;;;;;;;18.93;52.38;97928.63;4973110;28;20263;-89
2023/01/06 09:35:45;;;;;;;1.50;1.40;;;;;;;19.50;52.26;98026.47;4949874;28;20266;-88
2023/01/06 09:38:11;;;;;;;1.93;1.80;;;;;;;18.37;52.30;97830.91;4958297;28;20230;-88
2023/01/06 09:41:01;;;;;;;1.87;1.77;;;;;;;18.49;52.33;97849.31;4964931;28;20211;-87
2023/01/06 09:43:49;;;;;;;2.10;1.90;;;;;;;19.49;52.21;98031.47;4965166;28;20657;-89
2023/01/06 09:46:21;;;;;;;2.10;2.00;;;;;;;19.42;52.35;98017.59;4967990;28;20215;-89
2023/01/06 09:49:07;;;;;;;1.80;1.70;;;;;;;19.49;52.15;98034.03;4975082;28;20763;-89
2023/01/06 09:51:33;;;;;;;1.80;1.70;;;;;;;18.79;52.03;97914.38;4983343;28;20492;-90
2023/01/06 09:54:09;;;;;;;1.80;1.70;;;;;;;18.89;52.34;97926.75;4960835;28;20218;-89
2023/01/06 09:56:35;;;;;;;1.60;1.50;;;;;;;19.01;52.21;97948.53;4963973;28;20230;-90
2023/01/06 09:59:05;;;;;;;2.00;1.73;;;;;;;19.25;52.23;98004.84;4964186;28;20257;-90
2023/01/06 10:01:44;;;;;;;1.87;1.77;;;;;;;19.09;52.23;97964.16;4964724;28;20261;-88
2023/01/06 10:04:16;;;;;;;1.70;1.60;;;;;;;19.50;52.28;98028.13;4968041;28;20210;-89
2023/01/06 10:07:13;;;;;;;1.67;1.57;;;;;;;19.50;52.20;98035.78;4949863;28;20641;-89
2023/01/06 10:09:58;;;;;;;1.60;1.50;;;;;;;19.50;51.85;98034.09;4980902;28;20203;-89
2023/01/06 10:12:45;;;;;;;1.83;1.60;;;;;;;19.50;52.56;98030.66;4981177;28;20222;-90
2023/01/06 10:15:42;;;;;;;1.60;1.50;;;;;;;19.49;52.27;98034.91;4965746;28;20686;-89
2023/01/06 10:18:11;;;;;;;1.73;1.63;;;;;;;19.50;52.38;98028.13;4965533;28;20718;-89
2023/01/06 10:20:54;;;;;;;1.70;1.60;;;;;;;19.07;52.20;97950.50;4962600;28;20218;-89
2023/01/06 10:23:51;;;;;;;1.90;1.80;;;;;;;19.49;52.16;98024.72;4966518;28;20211;-90
2023/01/06 10:26:30;;;;;;;1.67;1.57;;;;;;;19.49;52.34;98027.28;4981627;28;20794;-87
2023/01/06 10:29:03;;;;;;;1.63;1.53;;;;;;;18.84;52.23;97908.72;4945785;28;20226;-89
2023/01/06 10:31:33;;;;;;;1.67;1.57;;;;;;;19.30;52.22;97996.63;4946700;28;20463;-90
2023/01/06 10:34:00;;;;;;;1.70;1.60;;;;;;;19.25;52.37;97982.81;4948129;28;20211;-90
2023/01/06 10:36:32;;;;;;;1.80;1.70;;;;;;;19.25;52.28;97976.81;4947641;28;20216;-89
2023/01/06 10:38:58;;;;;;;1.80;1.70;;;;;;;19.05;52.51;97932.63;4948125;28;20336;-90
2023/01/06 10:41:31;;;;;;;1.83;1.73;;;;;;;19.50;52.31;98011.16;4962711;28;20210;-90
2023/01/06 10:43:58;;;;;;;1.60;1.50;;;;;;;19.04;52.64;97938.50;4962546;28;20213;-90
2023/01/06 10:46:28;;;;;;;1.87;1.77;;;;;;;18.74;52.25;97885.31;4976655;28;20218;-90
2023/01/06 10:48:54;;;;;;;1.80;1.70;;;;;;;18.92;52.26;97932.00;4947855;28;20267;-89
2023/01/06 10:51:32;;;;;;;1.50;1.40;;;;;;;19.29;52.19;97983.81;4945881;28;20211;-90
2023/01/06 10:54:00;;;;;;;1.83;1.53;;;;;;;18.94;52.35;97927.81;4963688;28;20635;-89
2023/01/06 10:56:28;;;;;;;1.97;1.60;;;;;;;18.36;52.21;97824.09;4961215;28;20290;-90
2023/01/06 10:58:56;;;;;;;1.63;1.53;;;;;;;18.89;52.20;97912.31;4955399;28;20322;-89
2023/01/06 11:01:28;;;;;;;1.60;1.50;;;;;;;19.43;52.20;97995.53;4948081;28;20225;-89
2023/01/06 11:04:10;;;;;;;1.70;1.60;;;;;;;19.50;52.33;98039.19;4961396;28;20293;-89
2023/01/06 11:07:00;;;;;;;1.50;1.40;;;;;;;18.82;52.13;97889.06;4965166;28;20261;-89
2023/01/06 11:09:39;;;;;;;1.80;1.70;;;;;;;19.10;52.23;97927.72;4961004;28;20285;-89
2023/01/06 11:12:22;;;;;;;1.70;1.60;;;;;;;18.66;52.32;97859.50;4963631;28;21167;-88
2023/01/06 11:14:59;;;;;;;1.60;1.50;;;;;;;18.88;52.22;97922.44;4964965;28;20245;-89
2023/01/06 11:17:25;;;;;;;1.90;1.80;;;;;;;18.85;52.65;97925.72;4949368;28;20324;-90
2023/01/06 11:20:17;;;;;;;1.80;1.70;;;;;;;17.77;52.02;97702.66;4964399;28;20235;-89
2023/01/06 11:22:44;;;;;;;1.50;1.40;;;;;;;19.10;52.45;97954.06;4964084;28;20203;-88
2023/01/06 11:25:20;;;;;;;1.43;1.33;;;;;;;19.44;52.49;97985.41;4932297;28;20297;-89
2023/01/06 11:27:47;;;;;;;1.50;1.40;;;;;;;18.74;52.46;97858.16;4980278;28;20590;-90
2023/01/06 11:30:27;;;;;;;1.60;1.50;;;;;;;19.23;52.52;97956.38;4962497;28;20207;-88
2023/01/06 11:32:53;;;;;;;1.70;1.60;;;;;;;19.11;52.47;97932.88;4932589;28;20805;-89
2023/01/06 11:35:21;;;;;;;1.60;1.50;;;;;;;19.44;52.45;97981.97;4955978;28;20215;-88
2023/01/06 11:37:48;;;;;;;1.50;1.40;;;;;;;18.83;52.09;97906.94;4948915;28;20219;-89
2023/01/06 11:40:18;;;;;;;2.50;1.50;;;;;;;19.44;52.42;97985.41;4960941;28;20306;-90
2023/01/06 11:42:48;;;;;;;1.57;1.47;;;;;;;18.45;52.22;97802.53;4947562;28;20213;-90
2023/01/06 11:45:48;;;;;;;1.60;1.50;;;;;;;19.25;52.42;97938.59;4947602;28;20203;-88
2023/01/06 11:48:19;;;;;;;1.57;1.47;;;;;;;18.66;52.45;97831.50;4942951;28;20297;-89
2023/01/06 11:51:00;;;;;;;1.70;1.60;;;;;;;18.55;52.57;97812.31;4948426;28;20310;-87
2023/01/06 11:53:28;;;;;;;1.87;1.77;;;;;;;18.67;52.59;97852.72;4950148;28;20221;-90
2023/01/06 11:56:01;;;;;;;1.50;1.40;;;;;;;18.80;52.61;97858.44;4963078;28;20203;-88